createdAt,value
2024-03-05T00:01:47.084Z,30.25
2024-03-05T00:04:17.954Z,26.15
2024-03-05T00:06:50.405Z,29.65
2024-03-05T00:09:21.224Z,28.30
2024-03-05T00:11:52.193Z,24.00
2024-03-05T00:14:23.454Z,29.50
2024-03-05T00:19:24.886Z,24.50
2024-03-05T00:21:55.485Z,26.40
2024-03-05T00:24:26.741Z,30.85
2024-03-05T00:29:27.561Z,23.30
2024-03-05T00:31:58.438Z,25.85
2024-03-05T00:34:29.783Z,30.25
2024-03-05T00:37:01.275Z,25.95
2024-03-05T00:39:32.118Z,30.30
2024-03-05T00:42:02.946Z,27.85
2024-03-05T00:44:33.937Z,24.08
2024-03-05T00:47:04.732Z,23.23
2024-03-05T00:52:07.327Z,32.50
2024-03-05T00:54:37.965Z,25.83
2024-03-05T00:57:09.205Z,28.33
2024-03-05T01:02:10.541Z,23.48
2024-03-05T01:04:42.206Z,22.25
2024-03-05T01:07:13.718Z,24.08
2024-03-05T01:09:44.698Z,28.65
2024-03-05T01:12:15.710Z,27.60
2024-03-05T01:14:47.617Z,24.90
2024-03-05T01:17:18.395Z,28.77
2024-03-05T01:19:50.197Z,24.42
2024-03-05T01:22:21.085Z,25.98
2024-03-05T01:24:55.311Z,24.10
2024-03-05T01:27:28.138Z,25.98
2024-03-05T01:29:58.921Z,29.92
2024-03-05T01:32:32.116Z,23.75
2024-03-05T01:35:03.928Z,27.63
2024-03-05T01:37:34.703Z,26.52
2024-03-05T01:40:07.779Z,25.67
2024-03-05T01:42:38.788Z,25.35
2024-03-05T01:45:10.179Z,25.70
2024-03-05T01:47:41.164Z,25.77
2024-03-05T01:50:13.209Z,26.83
2024-03-05T01:52:44.953Z,26.30
2024-03-05T01:55:19.604Z,24.63
2024-03-05T01:57:53.662Z,27.23
2024-03-05T02:00:24.701Z,27.70
2024-03-05T02:02:55.851Z,26.15
2024-03-05T02:05:27.650Z,24.73
2024-03-05T02:07:58.584Z,25.65
2024-03-05T02:10:30.633Z,27.10
2024-03-05T02:13:01.561Z,22.50
2024-03-05T02:15:33.003Z,28.10
2024-03-05T02:18:04.340Z,28.33
2024-03-05T02:20:35.104Z,26.17
2024-03-05T02:23:08.761Z,24.43
2024-03-05T02:25:39.800Z,22.75
2024-03-05T02:28:11.974Z,29.33
2024-03-05T02:30:43.894Z,27.70
2024-03-05T02:33:17.003Z,25.63
2024-03-05T02:35:50.169Z,26.60
2024-03-05T02:38:21.465Z,28.10
2024-03-05T02:40:52.181Z,24.92
2024-03-05T02:43:24.535Z,28.33
2024-03-05T02:45:55.554Z,28.52
2024-03-05T02:48:26.663Z,23.17
2024-03-05T02:50:57.961Z,26.98
2024-03-05T02:53:29.102Z,26.90
2024-03-05T02:58:30.438Z,25.10
2024-03-05T03:01:01.288Z,29.75
2024-03-05T03:03:33.004Z,25.15
2024-03-05T03:06:05.030Z,23.83
2024-03-05T03:08:36.749Z,28.52
2024-03-05T03:11:07.776Z,30.30
2024-03-05T03:13:39.058Z,21.58
2024-03-05T03:16:09.795Z,23.20
2024-03-05T03:18:40.580Z,25.13
2024-03-05T03:21:11.312Z,25.80
2024-03-05T03:23:42.106Z,23.45
2024-03-05T03:26:13.091Z,24.33
2024-03-05T03:28:44.068Z,25.75
2024-03-05T03:31:15.299Z,25.45
2024-03-05T03:36:27.220Z,23.42
2024-03-05T03:38:57.919Z,23.70
2024-03-05T03:41:28.667Z,21.50
2024-03-05T03:43:59.493Z,25.33
2024-03-05T03:46:30.315Z,22.75
2024-03-05T03:49:01.208Z,22.30
2024-03-05T03:51:32.748Z,23.40
2024-03-05T03:54:03.365Z,22.05
2024-03-05T03:56:34.315Z,26.27
2024-03-05T03:59:05.055Z,24.65
2024-03-05T04:01:37.991Z,20.88
2024-03-05T04:04:09.402Z,23.15
2024-03-05T04:06:42.010Z,25.55
2024-03-05T04:09:13.125Z,23.15
2024-03-05T04:14:19.031Z,22.83
2024-03-05T04:16:49.834Z,24.05
2024-03-05T04:19:20.346Z,22.63
2024-03-05T04:21:51.184Z,22.00
2024-03-05T04:24:22.018Z,25.58
2024-03-05T04:26:56.326Z,21.90
2024-03-05T04:29:33.583Z,20.70
2024-03-05T04:32:12.089Z,22.08
2024-03-05T04:34:45.577Z,21.95
2024-03-05T04:37:17.375Z,21.42
2024-03-05T04:39:49.988Z,23.58
2024-03-05T04:42:21.397Z,22.52
2024-03-05T04:44:52.451Z,21.70
2024-03-05T04:47:24.739Z,21.92
2024-03-05T04:49:55.592Z,20.48
2024-03-05T04:52:26.389Z,20.67
2024-03-05T04:54:58.685Z,21.98
2024-03-05T04:57:29.524Z,22.23
2024-03-05T05:00:01.670Z,22.55
2024-03-05T05:02:32.740Z,22.23
2024-03-05T05:05:07.359Z,19.88
2024-03-05T05:07:38.235Z,20.95
2024-03-05T05:10:11.765Z,19.98
2024-03-05T05:12:43.715Z,20.10
2024-03-05T05:15:15.905Z,21.42
2024-03-05T05:17:48.311Z,24.98
2024-03-05T05:20:19.066Z,19.95
2024-03-05T05:22:49.952Z,21.20
2024-03-05T05:25:23.451Z,20.85
2024-03-05T05:27:54.872Z,19.15
2024-03-05T05:30:27.159Z,19.48
2024-03-05T05:32:58.536Z,20.98
2024-03-05T05:35:29.256Z,20.63
2024-03-05T05:38:01.018Z,23.63
2024-03-05T05:40:32.541Z,23.85
2024-03-05T05:43:03.252Z,21.38
2024-03-05T05:45:34.224Z,20.23
2024-03-05T05:48:05.921Z,20.67
2024-03-05T05:50:37.737Z,22.40
2024-03-05T05:53:10.337Z,21.70
2024-03-05T05:55:41.384Z,23.20
2024-03-05T05:58:12.195Z,24.30
2024-03-05T06:00:43.650Z,20.08
2024-03-05T06:05:46.624Z,19.98
2024-03-05T06:08:18.204Z,20.75
2024-03-05T06:10:49.677Z,18.85
2024-03-05T06:15:52.477Z,19.13
2024-03-05T06:18:23.240Z,20.42
2024-03-05T06:20:55.127Z,18.77
2024-03-05T06:23:25.924Z,19.52
2024-03-05T06:25:57.452Z,17.30
2024-03-05T06:28:29.322Z,17.25
2024-03-05T06:31:00.067Z,20.20
2024-03-05T06:33:31.707Z,20.08
2024-03-05T06:36:02.504Z,17.42
2024-03-05T06:38:33.367Z,18.88
2024-03-05T06:41:04.735Z,17.20
2024-03-05T06:43:40.580Z,17.65
2024-03-05T06:46:16.924Z,18.70
2024-03-05T06:48:51.228Z,16.80
2024-03-05T06:51:35.124Z,18.33
2024-03-05T06:54:23.888Z,17.52
2024-03-05T06:56:55.679Z,17.40
2024-03-05T06:59:27.891Z,15.88
2024-03-05T07:04:30.879Z,16.15
2024-03-05T07:07:02.699Z,14.90
2024-03-05T07:09:35.524Z,14.30
2024-03-05T07:12:06.722Z,13.68
2024-03-05T07:17:10.138Z,13.32
2024-03-05T07:19:41.532Z,13.35
2024-03-05T07:22:12.621Z,14.30
2024-03-05T07:27:15.605Z,13.15
2024-03-05T07:29:46.289Z,13.75
2024-03-05T07:32:19.371Z,13.02
2024-03-05T07:34:50.216Z,13.85
2024-03-05T07:37:20.745Z,13.83
2024-03-05T07:39:51.474Z,13.30
2024-03-05T07:42:22.120Z,13.97
2024-03-05T07:44:52.593Z,14.00
2024-03-05T07:47:23.114Z,12.37
2024-03-05T07:49:53.901Z,13.73
2024-03-05T07:52:25.190Z,12.88
2024-03-05T07:54:56.093Z,12.07
2024-03-05T07:57:26.814Z,12.50
2024-03-05T07:59:57.529Z,12.95
2024-03-05T08:02:28.866Z,11.77
2024-03-05T08:04:59.664Z,11.35
2024-03-05T08:07:30.523Z,12.27
2024-03-05T08:10:01.367Z,11.82
2024-03-05T08:12:32.243Z,11.02
2024-03-05T08:15:03.120Z,10.73
2024-03-05T08:17:40.271Z,10.63
2024-03-05T08:20:11.668Z,10.70
2024-03-05T08:22:42.818Z,11.02
2024-03-05T08:27:47.807Z,10.88
2024-03-05T08:30:27.657Z,10.15
2024-03-05T08:32:58.898Z,13.07
2024-03-05T08:35:33.072Z,10.70
2024-03-05T08:38:03.839Z,11.35
2024-03-05T08:40:39.700Z,11.23
2024-03-05T08:43:12.879Z,12.98
2024-03-05T08:45:43.853Z,16.65
2024-03-05T08:48:14.699Z,18.98
2024-03-05T08:50:45.598Z,20.00
2024-03-05T08:53:17.717Z,21.27
2024-03-05T08:55:48.484Z,25.13
2024-03-05T08:58:19.287Z,20.80
2024-03-05T09:00:54.328Z,19.08
2024-03-05T09:03:25.137Z,21.60
2024-03-05T09:05:56.562Z,22.05
2024-03-05T09:08:27.230Z,19.73
2024-03-05T09:10:58.324Z,21.60
2024-03-05T09:13:29.543Z,22.13
2024-03-05T09:16:01.454Z,21.80
2024-03-05T09:18:32.871Z,20.05
2024-03-05T09:21:03.571Z,22.75
2024-03-05T09:23:34.597Z,21.95
2024-03-05T09:26:05.650Z,19.50
2024-03-05T09:28:38.111Z,23.27
2024-03-05T09:31:09.532Z,20.63
2024-03-05T09:33:42.290Z,22.38
2024-03-05T09:36:13.231Z,25.05
2024-03-05T09:38:44.318Z,22.20
2024-03-05T09:41:16.343Z,21.63
2024-03-05T09:43:48.844Z,23.65
2024-03-05T09:46:21.502Z,21.92
2024-03-05T09:48:53.016Z,26.13
2024-03-05T09:51:26.058Z,28.65
2024-03-05T09:53:57.288Z,25.45
2024-03-05T09:56:36.390Z,26.90
2024-03-05T09:59:11.426Z,23.25
2024-03-05T10:01:47.660Z,24.08
2024-03-05T10:04:20.782Z,24.27
2024-03-05T10:06:57.395Z,26.67
2024-03-05T10:09:28.783Z,24.77
2024-03-05T10:14:34.912Z,24.20
2024-03-05T10:17:05.901Z,21.75
2024-03-05T10:22:18.010Z,24.73
2024-03-05T10:24:49.341Z,26.58
2024-03-05T10:27:31.329Z,21.67
2024-03-05T10:30:02.224Z,20.60
2024-03-05T10:32:32.870Z,24.77
2024-03-05T10:35:04.636Z,24.30
2024-03-05T10:37:35.466Z,26.35
2024-03-05T10:42:45.900Z,35.13
2024-03-05T10:45:18.132Z,26.15
2024-03-05T10:47:52.688Z,32.55
2024-03-05T10:50:24.406Z,34.88
2024-03-05T10:52:56.033Z,26.98
2024-03-05T10:55:28.691Z,29.40
2024-03-05T10:58:35.907Z,27.17
2024-03-05T11:01:10.591Z,26.73
2024-03-05T11:03:44.658Z,24.15
2024-03-05T11:06:20.593Z,27.35
2024-03-05T11:08:52.646Z,25.27
2024-03-05T11:11:27.487Z,24.42
2024-03-05T11:14:01.765Z,24.20
2024-03-05T11:16:37.182Z,23.35
2024-03-05T11:19:16.859Z,27.70
2024-03-05T11:21:47.933Z,26.45
2024-03-05T11:24:19.542Z,27.77
2024-03-05T11:26:50.182Z,27.73
2024-03-05T11:29:20.947Z,20.92
2024-03-05T11:31:54.479Z,26.05
2024-03-05T11:34:26.299Z,27.88
2024-03-05T11:37:13.304Z,23.08
2024-03-05T11:39:46.711Z,25.13
2024-03-05T11:42:22.112Z,22.13
2024-03-05T11:44:53.517Z,25.70
2024-03-05T11:49:56.394Z,24.17
2024-03-05T11:52:29.109Z,25.65
2024-03-05T11:55:09.504Z,27.55
2024-03-05T11:57:40.275Z,24.75
2024-03-05T12:00:21.583Z,26.00
2024-03-05T12:02:58.590Z,20.80
2024-03-05T12:05:33.329Z,22.15
2024-03-05T12:08:12.300Z,27.50
2024-03-05T12:10:44.084Z,26.55
2024-03-05T12:13:22.335Z,28.52
2024-03-05T12:15:53.304Z,22.20
2024-03-05T12:18:24.033Z,25.63
2024-03-05T12:20:56.635Z,25.85
2024-03-05T12:23:41.141Z,23.58
2024-03-05T12:26:16.330Z,31.33
2024-03-05T12:28:47.153Z,29.20
2024-03-05T12:31:18.023Z,27.77
2024-03-05T12:33:49.078Z,25.73
2024-03-05T12:36:20.168Z,27.38
2024-03-05T12:41:24.649Z,23.00
2024-03-05T12:43:59.517Z,20.75
2024-03-05T12:46:30.187Z,22.70
2024-03-05T12:49:02.313Z,21.52
2024-03-05T12:51:34.284Z,20.17
2024-03-05T12:54:12.638Z,23.35
2024-03-05T12:56:45.574Z,30.27
2024-03-05T12:59:23.112Z,24.63
2024-03-05T13:01:54.219Z,34.58
2024-03-05T13:04:25.194Z,32.08
2024-03-05T13:06:57.134Z,24.50
2024-03-05T13:09:27.947Z,28.27
2024-03-05T13:11:59.115Z,23.95
2024-03-05T13:14:30.020Z,23.38
2024-03-05T13:17:02.289Z,21.83
2024-03-05T13:19:33.086Z,21.35
2024-03-05T13:22:03.928Z,24.42
2024-03-05T13:24:37.820Z,26.10
2024-03-05T13:27:09.050Z,24.75
2024-03-05T13:32:10.851Z,24.27
2024-03-05T13:34:41.599Z,24.35
2024-03-05T13:37:12.898Z,20.83
2024-03-05T13:39:47.517Z,23.95
2024-03-05T13:42:18.452Z,21.40
2024-03-05T13:44:49.219Z,23.20
2024-03-05T13:47:20.777Z,24.77
2024-03-05T13:49:51.859Z,24.48
2024-03-05T13:52:22.703Z,23.02
2024-03-05T13:54:53.539Z,21.05
2024-03-05T13:57:24.227Z,22.13
2024-03-05T13:59:55.053Z,24.13
2024-03-05T14:02:26.588Z,23.88
2024-03-05T14:07:27.573Z,21.90
2024-03-05T14:09:59.947Z,24.88
2024-03-05T14:12:34.604Z,25.75
2024-03-05T14:15:12.756Z,27.17
2024-03-05T14:17:44.018Z,24.13
2024-03-05T14:20:16.731Z,24.92
2024-03-05T14:22:47.900Z,20.35
2024-03-05T14:27:52.522Z,24.05
2024-03-05T14:30:23.268Z,22.80
2024-03-05T14:32:54.162Z,31.30
2024-03-05T14:35:26.276Z,29.00
2024-03-05T14:39:41.744Z,31.35
2024-03-05T14:42:13.931Z,32.15
2024-03-05T14:44:45.013Z,30.85
2024-03-05T14:47:17.061Z,27.40
2024-03-05T14:49:49.132Z,25.40
2024-03-05T14:52:20.333Z,31.23
2024-03-05T14:54:51.387Z,54.83
2024-03-05T14:59:52.921Z,64.53
2024-03-05T15:02:23.966Z,47.85
2024-03-05T15:07:25.916Z,28.83
2024-03-05T15:09:57.399Z,36.83
2024-03-05T15:12:28.544Z,32.90
2024-03-05T15:14:59.489Z,34.78
2024-03-05T15:17:30.177Z,30.45
2024-03-05T15:20:02.700Z,28.90
2024-03-05T15:22:33.647Z,24.13
2024-03-05T15:25:04.523Z,22.95
2024-03-05T15:27:35.286Z,24.77
2024-03-05T15:30:16.166Z,24.70
2024-03-05T15:32:51.042Z,22.90
2024-03-05T15:35:26.487Z,22.77
2024-03-05T15:38:02.717Z,24.25
2024-03-05T15:40:36.004Z,23.77
2024-03-05T15:43:08.597Z,19.70
2024-03-05T15:45:41.508Z,21.45
2024-03-05T15:48:13.315Z,23.92
2024-03-05T15:50:44.693Z,22.75
2024-03-05T15:53:15.680Z,23.52
2024-03-05T15:55:48.385Z,25.15
2024-03-05T15:58:45.079Z,23.50
2024-03-05T16:01:16.210Z,23.52
2024-03-05T16:06:37.724Z,21.20
2024-03-05T16:09:08.359Z,25.00
2024-03-05T16:11:40.826Z,24.38
2024-03-05T16:14:12.073Z,21.80
2024-03-05T16:16:43.036Z,20.02
2024-03-05T16:19:16.964Z,22.08
2024-03-05T16:21:52.844Z,21.67
2024-03-05T16:24:23.857Z,20.88
2024-03-05T16:26:57.630Z,20.95
2024-03-05T16:29:28.629Z,18.98
2024-03-05T16:32:01.358Z,18.08
2024-03-05T16:34:32.210Z,20.42
2024-03-05T16:39:33.555Z,20.65
2024-03-05T16:44:35.217Z,19.63
2024-03-05T16:49:37.923Z,19.10
2024-03-05T16:52:10.223Z,21.10
2024-03-05T16:54:41.091Z,24.30
2024-03-05T16:57:13.671Z,22.52
2024-03-05T16:59:45.276Z,19.90
2024-03-05T17:02:17.973Z,19.05
2024-03-05T17:04:50.930Z,22.27
2024-03-05T17:07:21.759Z,20.40
2024-03-05T17:09:52.768Z,22.23
2024-03-05T17:12:23.893Z,19.38
2024-03-05T17:17:24.994Z,21.75
2024-03-05T17:22:31.713Z,23.50
2024-03-05T17:25:04.311Z,24.38
2024-03-05T17:27:37.138Z,24.75
2024-03-05T17:30:13.586Z,25.13
2024-03-05T17:32:45.861Z,23.10
2024-03-05T17:35:18.217Z,23.75
2024-03-05T17:37:49.763Z,20.27
2024-03-05T17:40:20.431Z,21.55
2024-03-05T17:42:52.563Z,24.15
2024-03-05T17:45:23.546Z,20.58
2024-03-05T17:47:55.048Z,22.20
2024-03-05T17:50:26.746Z,22.38
2024-03-05T17:52:57.548Z,21.40
2024-03-05T17:55:28.730Z,21.95
2024-03-05T17:57:59.675Z,23.75
2024-03-05T18:00:31.116Z,20.73
2024-03-05T18:03:07.866Z,26.15
2024-03-05T18:05:38.591Z,19.75
2024-03-05T18:08:09.527Z,24.17
2024-03-05T18:10:40.907Z,23.98
2024-03-05T18:13:13.023Z,23.88
2024-03-05T18:15:44.500Z,21.17
2024-03-05T18:18:17.645Z,19.80
2024-03-05T18:20:48.964Z,23.77
2024-03-05T18:23:19.848Z,25.33
2024-03-05T18:25:51.685Z,24.73
2024-03-05T18:28:25.575Z,21.90
2024-03-05T18:30:57.511Z,21.77
2024-03-05T18:33:28.663Z,25.27
2024-03-05T18:36:03.029Z,22.10
2024-03-05T18:38:34.310Z,22.13
2024-03-05T18:41:06.033Z,23.08
2024-03-05T18:43:37.149Z,19.95
2024-03-05T18:46:10.031Z,22.27
2024-03-05T18:48:40.723Z,21.65
2024-03-05T18:51:13.365Z,19.90
2024-03-05T18:53:49.423Z,24.33
2024-03-05T18:56:21.069Z,22.95
2024-03-05T19:01:23.032Z,19.60
2024-03-05T19:04:01.423Z,21.77
2024-03-05T19:06:39.952Z,26.80
2024-03-05T19:09:12.277Z,27.50
2024-03-05T19:11:46.559Z,23.40
2024-03-05T19:14:19.149Z,21.73
2024-03-05T19:16:52.621Z,21.40
2024-03-05T19:19:23.399Z,22.27
2024-03-05T19:21:54.627Z,22.25
2024-03-05T19:26:57.020Z,22.92
2024-03-05T19:29:30.166Z,23.70
2024-03-05T19:32:00.631Z,20.95
2024-03-05T19:34:31.561Z,20.60
2024-03-05T19:39:33.114Z,19.27
2024-03-05T19:42:04.463Z,22.77
2024-03-05T19:44:36.109Z,21.30
2024-03-05T19:47:07.005Z,24.05
2024-03-05T19:49:38.528Z,22.80
2024-03-05T19:52:10.160Z,27.05
2024-03-05T19:54:40.993Z,20.25
2024-03-05T19:57:12.197Z,22.92
2024-03-05T19:59:43.030Z,23.42
2024-03-05T20:02:14.083Z,27.57
2024-03-05T20:04:45.095Z,20.48
2024-03-05T20:07:17.100Z,26.00
2024-03-05T20:09:48.729Z,25.40
2024-03-05T20:12:19.581Z,20.08
2024-03-05T20:14:51.093Z,23.17
2024-03-05T20:17:24.223Z,20.13
2024-03-05T20:19:56.467Z,25.17
2024-03-05T20:22:31.460Z,20.48
2024-03-05T20:25:03.643Z,22.00
2024-03-05T20:27:34.769Z,20.67
2024-03-05T20:30:15.650Z,21.90
2024-03-05T20:32:48.411Z,25.73
2024-03-05T20:35:20.557Z,23.42
2024-03-05T20:37:53.633Z,19.33
2024-03-05T20:40:26.434Z,22.63
2024-03-05T20:42:57.777Z,22.08
2024-03-05T20:45:29.128Z,20.20
2024-03-05T20:47:59.869Z,21.33
2024-03-05T20:50:31.814Z,20.90
2024-03-05T20:53:02.629Z,23.38
2024-03-05T20:55:33.936Z,24.73
2024-03-05T20:58:04.828Z,23.30
2024-03-05T21:00:35.804Z,24.07
2024-03-05T21:03:07.055Z,22.10
2024-03-05T21:08:09.285Z,22.42
2024-03-05T21:10:40.284Z,23.05
2024-03-05T21:13:11.847Z,21.90
2024-03-05T21:15:42.731Z,24.92
2024-03-05T21:18:13.988Z,24.10
2024-03-05T21:20:45.013Z,19.27
2024-03-05T21:23:18.444Z,23.73
2024-03-05T21:26:02.712Z,26.23
2024-03-05T21:28:41.037Z,21.73
2024-03-05T21:31:12.317Z,22.30
2024-03-05T21:33:43.139Z,21.50
2024-03-05T21:36:13.996Z,22.77
2024-03-05T21:38:44.727Z,21.10
2024-03-05T21:41:16.078Z,23.58
2024-03-05T21:43:47.674Z,24.05
2024-03-05T21:46:18.585Z,22.73
2024-03-05T21:48:49.631Z,21.42
2024-03-05T21:51:20.661Z,26.48
2024-03-05T21:53:51.650Z,22.92
2024-03-05T21:56:22.382Z,24.30
2024-03-05T21:58:53.384Z,27.95
2024-03-05T22:01:24.171Z,24.13
2024-03-05T22:03:54.963Z,24.30
2024-03-05T22:06:25.646Z,20.27
2024-03-05T22:09:00.132Z,23.10
2024-03-05T22:11:31.365Z,25.00
2024-03-05T22:14:02.820Z,20.80
2024-03-05T22:16:33.658Z,24.92
2024-03-05T22:19:29.552Z,29.15
2024-03-05T22:22:00.261Z,22.73
2024-03-05T22:24:31.051Z,26.00
2024-03-05T22:27:01.864Z,24.63
2024-03-05T22:29:33.879Z,27.00
2024-03-05T22:32:04.394Z,28.80
2024-03-05T22:34:37.061Z,26.60
2024-03-05T22:37:08.168Z,23.65
2024-03-05T22:39:40.415Z,22.95
2024-03-05T22:42:11.208Z,27.20
2024-03-05T22:44:43.712Z,26.17
2024-03-05T22:47:14.654Z,27.05
2024-03-05T22:52:19.638Z,27.15
2024-03-05T22:54:50.826Z,28.98
2024-03-05T22:57:21.759Z,28.30
2024-03-05T22:59:52.224Z,28.13
2024-03-05T23:02:24.708Z,29.00
2024-03-05T23:04:55.856Z,26.88
2024-03-05T23:07:27.182Z,25.10
2024-03-05T23:09:57.867Z,27.30
2024-03-05T23:12:28.656Z,26.80
2024-03-05T23:15:00.184Z,26.95
2024-03-05T23:17:30.869Z,26.20
2024-03-05T23:20:01.738Z,29.00
2024-03-05T23:22:32.510Z,24.98
2024-03-05T23:25:03.347Z,25.80
2024-03-05T23:27:34.032Z,26.98
2024-03-05T23:30:07.415Z,28.10
2024-03-05T23:32:38.232Z,27.25
2024-03-05T23:35:09.917Z,28.42
2024-03-05T23:37:40.936Z,23.85
2024-03-05T23:40:13.239Z,36.30
2024-03-05T23:42:44.158Z,30.17
2024-03-05T23:45:15.141Z,30.50
2024-03-05T23:47:46.066Z,30.08
2024-03-05T23:50:17.111Z,25.60
2024-03-05T23:52:47.867Z,30.80
2024-03-05T23:55:18.782Z,29.55
2024-03-05T23:57:49.602Z,30.45
